KEUG/EUG METAR and TAF weather

Enter ICAO airport designator
Station Type Date Time Source
KEUG METAR 2022/12/05 13:54 UTC NOAA

KEUG 051354Z 02007KT 1/2SM R16R/4000V4500FT FG VV002 02/02 A2998 RMK AO2 SLP155 T00170017 $


Station Type Date Time Source
KEUG Decoded METAR 2022/12/05 13:54 UTC NOAA

MAHLON SWEET FIELD, OR, United States (KEUG) 44-08N 123-13W 114M
Dec 05, 2022 - 08:54 AM EST / 2022.12.05 1354 UTC
Wind: from the NNE (020 degrees) at 8 MPH (7 KT) (direction variable):0
Visibility: 1/2 mile(s):0
Sky conditions: obscured
Weather: fog
Temperature: 35.1 F (1.7 C)
Dew Point: 35.1 F (1.7 C)
Relative Humidity: 100%
Pressure (altimeter): 29.98 in. Hg (1015 hPa)
ob: KEUG 051354Z 02007KT 1/2SM R16R/4000V4500FT FG VV002 02/02 A2998 RMK AO2 SLP155 T00170017
cycle: 14

Station Type Date Time Source
KEUG TAF 2022/12/05 13:28 UTC NOAA

TAF
AMD KEUG 051325Z 0513/0612 02009KT 1SM BR VV002
FM052100 VRB03KT 4SM BR BKN008 BKN015
FM052300 VRB03KT 6SM BR SCT008 BKN015
FM060300 VRB03KT 3SM BR BKN008 OVC012
FM060500 VRB03KT 1/4SM FG VV002

Example: see airport list